Time;durP1;ratioP1;P1;durP2;ratioP2;P2;SDS_P1;SDS_P2;PMS_P1;PMS_P2;Temp;Humidity;BMP_temperature;BMP_pressure;BME280_temperature;BME280_humidity;BME280_pressure;Samples;Min_cycle;Max_cycle;Signal;HPM_P1;HPM_P2
2022/11/19 00:01:51;;;;;;;8.50;3.95;;;;;;;;;;5030442;28;20071;-82
2022/11/19 00:04:17;;;;;;;8.85;4.05;;;;;;;;;;5051891;28;20048;-83
2022/11/19 00:06:44;;;;;;;8.52;3.45;;;;;;;;;;5051630;28;20044;-83
2022/11/19 00:09:13;;;;;;;4.60;2.83;;;;;;;;;;5052365;28;20037;-82
2022/11/19 00:14:33;;;;;;;6.38;2.75;;;;;;;;;;5021216;28;20099;-84
2022/11/19 00:17:02;;;;;;;9.55;3.35;;;;;;;;;;5048775;28;20072;-83
2022/11/19 00:19:28;;;;;;;7.05;3.47;;;;;;;;;;5032646;28;20041;-85
2022/11/19 00:21:54;;;;;;;7.07;3.83;;;;;;;;;;5049745;28;20067;-84
2022/11/19 00:24:21;;;;;;;5.47;3.38;;;;;;;;;;5054511;28;20045;-84
2022/11/19 00:26:47;;;;;;;6.05;3.33;;;;;;;;;;5054597;28;20155;-84
2022/11/19 00:29:13;;;;;;;9.55;3.88;;;;;;;;;;5056446;28;20129;-84
2022/11/19 00:31:43;;;;;;;7.90;3.60;;;;;;;;;;5032285;28;20048;-84
2022/11/19 00:34:11;;;;;;;7.90;4.57;;;;;;;;;;5054969;28;20523;-84
2022/11/19 00:36:37;;;;;;;6.32;3.22;;;;;;;;;;5056493;28;20037;-84
2022/11/19 00:39:03;;;;;;;4.32;2.67;;;;;;;;;;5037127;28;20041;-85
2022/11/19 00:41:29;;;;;;;6.95;3.78;;;;;;;;;;5030376;28;20091;-85
2022/11/19 00:43:55;;;;;;;8.35;4.07;;;;;;;;;;5055117;28;20045;-85
2022/11/19 00:46:27;;;;;;;6.55;2.67;;;;;;;;;;5030984;28;20041;-83
2022/11/19 00:48:53;;;;;;;;;;;;;;;;;;5054769;28;20045;-83
2022/11/19 00:51:20;;;;;;;5.78;2.75;;;;;;;;;;5056038;28;19920;-84
2022/11/19 00:53:47;;;;;;;6.13;3.00;;;;;;;;;;5030088;28;20055;-83
2022/11/19 00:56:14;;;;;;;4.50;2.85;;;;;;;;;;5029919;28;20562;-84
2022/11/19 00:58:40;;;;;;;5.55;3.40;;;;;;;;;;5027875;28;20040;-82
2022/11/19 01:01:07;;;;;;;7.05;3.30;;;;;;;;;;5036183;28;20049;-83
2022/11/19 01:03:34;;;;;;;5.80;2.63;;;;;;;;;;5034541;28;20045;-83
2022/11/19 01:06:00;;;;;;;7.10;4.00;;;;;;;;;;4983569;28;1334640;-83
2022/11/19 01:08:26;;;;;;;4.68;2.95;;;;;;;;;;5055550;28;20048;-84
2022/11/19 01:10:52;;;;;;;7.50;4.05;;;;;;;;;;5062174;28;20091;-83
2022/11/19 01:13:34;;;;;;;5.20;2.65;;;;;;;;;;5033315;28;20049;-84
2022/11/19 01:16:00;;;;;;;7.78;2.97;;;;;;;;;;5057011;28;20048;-84
2022/11/19 01:18:27;;;;;;;4.82;2.75;;;;;;;;;;5056644;28;20171;-84
2022/11/19 01:20:54;;;;;;;4.30;3.13;;;;;;;;;;5057083;28;20038;-84
2022/11/19 01:23:20;;;;;;;5.07;3.50;;;;;;;;;;5038593;28;20549;-84
2022/11/19 01:25:46;;;;;;;6.93;3.50;;;;;;;;;;5056182;28;20045;-84
2022/11/19 01:28:12;;;;;;;9.30;2.97;;;;;;;;;;5039133;28;20056;-83
2022/11/19 01:30:39;;;;;;;4.38;2.72;;;;;;;;;;5032117;28;20088;-83
2022/11/19 01:33:06;;;;;;;7.82;3.35;;;;;;;;;;5057069;28;20041;-83
2022/11/19 01:35:33;;;;;;;7.63;2.90;;;;;;;;;;5057104;28;20485;-84
2022/11/19 01:38:00;;;;;;;6.43;3.25;;;;;;;;;;5032690;28;20144;-83
2022/11/19 01:40:29;;;;;;;3.97;2.55;;;;;;;;;;5054600;28;20053;-82
2022/11/19 01:42:55;;;;;;;5.97;3.00;;;;;;;;;;5038986;28;20045;-84
2022/11/19 01:45:31;;;;;;;7.55;3.17;;;;;;;;;;5055616;28;20111;-85
2022/11/19 01:47:59;;;;;;;5.40;2.70;;;;;;;;;;5055806;28;20033;-84
2022/11/19 01:50:26;;;;;;;12.27;5.63;;;;;;;;;;5037824;28;20484;-84
2022/11/19 01:52:53;;;;;;;7.72;3.05;;;;;;;;;;5055555;28;20080;-84
2022/11/19 01:55:19;;;;;;;8.15;4.07;;;;;;;;;;5031531;28;20207;-83
2022/11/19 01:57:46;;;;;;;9.20;3.42;;;;;;;;;;5037736;28;20041;-83
2022/11/19 02:00:12;;;;;;;7.28;3.28;;;;;;;;;;5057832;28;20078;-84
2022/11/19 02:02:38;;;;;;;9.23;2.90;;;;;;;;;;5057486;28;20045;-84
2022/11/19 02:05:05;;;;;;;10.15;3.30;;;;;;;;;;5039340;28;20056;-83
2022/11/19 02:07:33;;;;;;;10.38;3.75;;;;;;;;;;5051924;28;20107;-82
2022/11/19 02:10:00;;;;;;;5.90;3.42;;;;;;;;;;5069448;28;21267;-83
2022/11/19 02:12:36;;;;;;;5.60;2.90;;;;;;;;;;5067449;28;20126;-83
2022/11/19 02:15:08;;;;;;;4.97;2.63;;;;;;;;;;5058430;28;20044;-83
2022/11/19 02:17:41;;;;;;;5.43;3.08;;;;;;;;;;5057355;28;20044;-84
2022/11/19 02:20:26;;;;;;;10.13;2.97;;;;;;;;;;5059504;28;20045;-85
2022/11/19 02:23:10;;;;;;;7.03;4.70;;;;;;;;;;5039873;28;20041;-83
2022/11/19 02:25:42;;;;;;;5.00;2.72;;;;;;;;;;5057297;28;20096;-83
2022/11/19 02:28:27;;;;;;;5.78;3.08;;;;;;;;;;5057487;28;20106;-85
2022/11/19 02:31:06;;;;;;;11.73;6.28;;;;;;;;;;5058523;28;20537;-85
2022/11/19 02:33:51;;;;;;;4.85;3.13;;;;;;;;;;5058711;28;20068;-84
2022/11/19 02:36:17;;;;;;;7.10;2.45;;;;;;;;;;5058680;28;20136;-85
2022/11/19 02:38:49;;;;;;;11.48;2.83;;;;;;;;;;5039756;28;20033;-84
2022/11/19 02:41:33;;;;;;;5.25;2.95;;;;;;;;;;5056540;28;20094;-84
2022/11/19 02:47:09;;;;;;;6.10;2.03;;;;;;;;;;5033556;28;20050;-84
2022/11/19 02:49:38;;;;;;;3.75;1.85;;;;;;;;;;5058522;28;20052;-84
2022/11/19 02:52:05;;;;;;;4.57;1.83;;;;;;;;;;5057625;28;20534;-83
2022/11/19 02:54:31;;;;;;;5.15;2.35;;;;;;;;;;5056623;28;20060;-83
2022/11/19 02:56:58;;;;;;;9.90;1.98;;;;;;;;;;5037775;28;20041;-84
2022/11/19 03:05:32;;;;;;;7.07;1.48;;;;;;;;;;5057799;28;20056;-84
2022/11/19 03:07:58;;;;;;;12.27;2.15;;;;;;;;;;5058247;28;20519;-84
2022/11/19 03:10:27;;;;;;;5.45;1.42;;;;;;;;;;5055524;28;20047;-82
2022/11/19 03:12:54;;;;;;;7.45;2.45;;;;;;;;;;5031835;28;20037;-83
2022/11/19 03:18:28;;;;;;;3.63;2.05;;;;;;;;;;5057766;28;20045;-83
2022/11/19 03:21:13;;;;;;;4.63;1.92;;;;;;;;;;5032309;28;20148;-84
2022/11/19 03:23:47;;;;;;;6.50;2.20;;;;;;;;;;5032128;28;20037;-83
2022/11/19 03:26:16;;;;;;;3.78;1.60;;;;;;;;;;5038103;28;20055;-84
2022/11/19 03:28:44;;;;;;;4.72;1.73;;;;;;;;;;5057662;28;20056;-83
2022/11/19 03:31:11;;;;;;;3.92;2.00;;;;;;;;;;5057228;28;20065;-83
2022/11/19 03:33:42;;;;;;;4.07;2.10;;;;;;;;;;5040545;28;20041;-83
2022/11/19 03:36:11;;;;;;;6.70;1.85;;;;;;;;;;5056645;28;20049;-83
2022/11/19 03:38:40;;;;;;;6.40;1.40;;;;;;;;;;5055188;28;20702;-83
2022/11/19 03:41:08;;;;;;;3.15;1.50;;;;;;;;;;5031329;28;20041;-82
2022/11/19 03:43:37;;;;;;;7.10;1.98;;;;;;;;;;5039286;28;20036;-83
2022/11/19 03:46:05;;;;;;;3.00;1.48;;;;;;;;;;5055984;28;20037;-83
2022/11/19 03:48:31;;;;;;;4.20;1.60;;;;;;;;;;5057679;28;20614;-83
2022/11/19 03:51:00;;;;;;;4.85;2.10;;;;;;;;;;5053858;28;20044;-84
2022/11/19 03:53:27;;;;;;;3.42;1.48;;;;;;;;;;5031867;28;20052;-83
2022/11/19 03:55:57;;;;;;;4.70;1.85;;;;;;;;;;5056293;28;20045;-83
2022/11/19 03:58:25;;;;;;;5.38;2.63;;;;;;;;;;5057015;28;20063;-83
2022/11/19 04:00:51;;;;;;;7.82;1.85;;;;;;;;;;5055976;28;20061;-84
2022/11/19 04:03:18;;;;;;;7.05;2.35;;;;;;;;;;5036033;28;20033;-84
2022/11/19 04:05:44;;;;;;;9.13;3.95;;;;;;;;;;5051360;28;20978;-84
2022/11/19 04:08:10;;;;;;;8.10;2.95;;;;;;;;;;5052478;28;20068;-84
2022/11/19 04:10:36;;;;;;;7.13;3.20;;;;;;;;;;5052648;28;20041;-85
2022/11/19 04:13:03;;;;;;;5.80;2.95;;;;;;;;;;5035862;28;20046;-84
2022/11/19 04:15:29;;;;;;;9.90;3.03;;;;;;;;;;5034169;28;20083;-84
2022/11/19 04:17:55;;;;;;;4.93;2.83;;;;;;;;;;5035830;28;20559;-84
2022/11/19 04:20:21;;;;;;;9.45;3.60;;;;;;;;;;5038278;28;20068;-84
2022/11/19 04:22:50;;;;;;;8.18;2.90;;;;;;;;;;5036955;28;20051;-84
2022/11/19 04:25:16;;;;;;;6.38;2.63;;;;;;;;;;5036481;28;20057;-84
2022/11/19 04:27:44;;;;;;;7.70;3.55;;;;;;;;;;5033605;28;20045;-83
2022/11/19 04:30:10;;;;;;;9.70;3.10;;;;;;;;;;5035648;28;20672;-84
2022/11/19 04:32:37;;;;;;;3.10;1.80;;;;;;;;;;5037415;28;20120;-85
2022/11/19 04:35:03;;;;;;;4.85;2.58;;;;;;;;;;5037515;28;20037;-83
2022/11/19 04:37:29;;;;;;;6.78;2.10;;;;;;;;;;5037070;28;20618;-82
2022/11/19 04:39:56;;;;;;;5.03;1.65;;;;;;;;;;5029400;28;20038;-83
2022/11/19 04:42:22;;;;;;;3.40;1.90;;;;;;;;;;5028428;28;20938;-84
2022/11/19 04:44:48;;;;;;;7.15;2.38;;;;;;;;;;5035031;28;20049;-84
2022/11/19 04:47:14;;;;;;;4.95;1.70;;;;;;;;;;5029610;28;20049;-84
2022/11/19 04:49:40;;;;;;;3.97;1.85;;;;;;;;;;5036438;28;20088;-83
2022/11/19 04:52:06;;;;;;;3.53;1.88;;;;;;;;;;5037000;28;20045;-84
2022/11/19 04:54:32;;;;;;;7.18;4.18;;;;;;;;;;5035923;28;20095;-84
2022/11/19 04:56:58;;;;;;;3.88;1.48;;;;;;;;;;5034792;28;20038;-84
2022/11/19 04:59:24;;;;;;;6.22;2.30;;;;;;;;;;5034168;28;20824;-84
2022/11/19 05:01:50;;;;;;;4.35;2.25;;;;;;;;;;5035383;28;20157;-84
2022/11/19 05:04:16;;;;;;;5.80;2.10;;;;;;;;;;5033171;28;20112;-84
2022/11/19 05:06:42;;;;;;;5.40;2.05;;;;;;;;;;5054026;28;20176;-84
2022/11/19 05:09:08;;;;;;;6.13;2.30;;;;;;;;;;5055749;28;20072;-84
2022/11/19 05:11:34;;;;;;;3.08;1.65;;;;;;;;;;5037083;28;20049;-84
2022/11/19 05:14:01;;;;;;;12.02;2.35;;;;;;;;;;5037243;28;20088;-84
2022/11/19 05:16:27;;;;;;;5.43;1.90;;;;;;;;;;5055052;28;20095;-85
2022/11/19 05:18:53;;;;;;;5.95;2.22;;;;;;;;;;5029102;28;20094;-83
2022/11/19 05:21:19;;;;;;;7.60;2.13;;;;;;;;;;5052878;28;20041;-84
2022/11/19 05:23:45;;;;;;;4.93;1.88;;;;;;;;;;5054603;28;20130;-84
2022/11/19 05:26:11;;;;;;;5.32;3.92;;;;;;;;;;5054287;28;20224;-84
2022/11/19 05:28:37;;;;;;;5.38;2.50;;;;;;;;;;5051698;28;20041;-84
2022/11/19 05:31:03;;;;;;;2.55;1.65;;;;;;;;;;5053582;28;20080;-84
2022/11/19 05:33:30;;;;;;;7.97;2.20;;;;;;;;;;5054761;28;20041;-84
2022/11/19 05:35:56;;;;;;;5.47;1.80;;;;;;;;;;5057256;28;21049;-84
2022/11/19 05:38:24;;;;;;;4.82;2.03;;;;;;;;;;5056929;28;20041;-84
2022/11/19 05:40:50;;;;;;;5.32;2.17;;;;;;;;;;5038140;28;20045;-84
2022/11/19 05:43:16;;;;;;;3.83;1.92;;;;;;;;;;5056152;28;20052;-84
2022/11/19 05:45:42;;;;;;;7.68;1.73;;;;;;;;;;5053310;28;20049;-84
2022/11/19 05:48:09;;;;;;;10.60;2.55;;;;;;;;;;5054966;28;20123;-84
2022/11/19 05:50:35;;;;;;;4.43;2.08;;;;;;;;;;5037292;28;20045;-84
2022/11/19 05:53:01;;;;;;;7.50;2.10;;;;;;;;;;5056247;28;20048;-84
2022/11/19 05:55:27;;;;;;;5.78;1.90;;;;;;;;;;5035071;28;20124;-84
2022/11/19 05:57:53;;;;;;;4.18;2.00;;;;;;;;;;5056800;28;20171;-84
2022/11/19 06:00:19;;;;;;;6.63;1.50;;;;;;;;;;5038328;28;20041;-83
2022/11/19 06:02:45;;;;;;;3.10;2.00;;;;;;;;;;5057190;28;20112;-83
2022/11/19 06:05:11;;;;;;;4.10;1.75;;;;;;;;;;5057731;28;20408;-84
2022/11/19 06:07:37;;;;;;;5.97;1.67;;;;;;;;;;5058752;28;20160;-84
2022/11/19 06:10:04;;;;;;;3.70;1.50;;;;;;;;;;5060576;28;20045;-83
2022/11/19 06:12:30;;;;;;;6.70;2.75;;;;;;;;;;5067225;28;20045;-82
2022/11/19 06:14:56;;;;;;;6.15;1.33;;;;;;;;;;5062130;28;20049;-84
2022/11/19 06:17:22;;;;;;;8.55;2.25;;;;;;;;;;5059759;28;20045;-83
2022/11/19 06:19:48;;;;;;;5.60;2.72;;;;;;;;;;5032868;28;20055;-83
2022/11/19 06:22:14;;;;;;;7.18;1.73;;;;;;;;;;5057507;28;20590;-83
2022/11/19 06:24:40;;;;;;;4.28;1.67;;;;;;;;;;5059001;28;20565;-83
2022/11/19 06:27:06;;;;;;;4.90;2.17;;;;;;;;;;5056956;28;20088;-82
2022/11/19 06:29:32;;;;;;;5.00;1.98;;;;;;;;;;5057282;28;20500;-84
2022/11/19 06:31:59;;;;;;;6.55;1.92;;;;;;;;;;5057960;28;20038;-83
2022/11/19 06:34:25;;;;;;;3.88;2.00;;;;;;;;;;5033664;28;20123;-83
2022/11/19 06:36:51;;;;;;;4.18;2.05;;;;;;;;;;5058128;28;20045;-83
2022/11/19 06:39:17;;;;;;;3.70;2.03;;;;;;;;;;5057679;28;20045;-83
2022/11/19 06:41:43;;;;;;;5.07;2.05;;;;;;;;;;5057865;28;20533;-84
2022/11/19 06:44:09;;;;;;;4.00;2.20;;;;;;;;;;5033591;28;20052;-83
2022/11/19 06:46:35;;;;;;;4.70;1.98;;;;;;;;;;5033609;28;20612;-83
2022/11/19 06:49:04;;;;;;;4.57;2.05;;;;;;;;;;5058057;28;20045;-83
2022/11/19 06:51:30;;;;;;;2.40;1.58;;;;;;;;;;5056097;28;20053;-83
2022/11/19 06:53:56;;;;;;;7.80;1.92;;;;;;;;;;5058489;28;20033;-83
2022/11/19 06:56:22;;;;;;;4.57;1.88;;;;;;;;;;5058126;28;20049;-83
2022/11/19 06:58:48;;;;;;;5.78;2.30;;;;;;;;;;5056275;28;20037;-83
2022/11/19 07:01:15;;;;;;;4.88;1.88;;;;;;;;;;5032018;28;20049;-83
2022/11/19 07:03:41;;;;;;;4.82;1.83;;;;;;;;;;5056320;28;20051;-84
2022/11/19 07:06:07;;;;;;;5.53;1.85;;;;;;;;;;5056422;28;20498;-84
2022/11/19 07:08:34;;;;;;;4.50;1.73;;;;;;;;;;5040961;28;20051;-85
2022/11/19 07:11:01;;;;;;;3.42;1.80;;;;;;;;;;5056387;28;20045;-83
2022/11/19 07:13:55;;;;;;;8.18;2.55;;;;;;;;;;5041539;28;20076;-84
2022/11/19 07:16:13;;;;;;;3.88;2.30;;;;;;;;;;5057283;28;20115;-84
2022/11/19 07:18:39;;;;;;;6.95;2.08;;;;;;;;;;5059288;28;20126;-84
2022/11/19 07:21:05;;;;;;;7.57;2.10;;;;;;;;;;5060344;28;20045;-84
2022/11/19 07:23:31;;;;;;;8.93;2.67;;;;;;;;;;5059414;28;20041;-83
2022/11/19 07:26:00;;;;;;;4.47;2.28;;;;;;;;;;5059476;28;20081;-83
2022/11/19 07:28:27;;;;;;;4.10;2.55;;;;;;;;;;5033849;28;20195;-83
2022/11/19 07:30:53;;;;;;;5.85;2.97;;;;;;;;;;5059260;28;20130;-84
2022/11/19 07:33:19;;;;;;;8.20;3.10;;;;;;;;;;5034928;28;20558;-85
2022/11/19 07:35:45;;;;;;;7.43;3.45;;;;;;;;;;5058275;28;20519;-85
2022/11/19 07:38:11;;;;;;;8.63;3.35;;;;;;;;;;5039682;28;20068;-84
2022/11/19 07:40:37;;;;;;;5.03;3.60;;;;;;;;;;5058787;28;20041;-84
2022/11/19 07:43:03;;;;;;;3.28;2.08;;;;;;;;;;5059044;28;20037;-84
2022/11/19 07:45:29;;;;;;;9.57;2.92;;;;;;;;;;5041926;28;20041;-84
2022/11/19 07:47:55;;;;;;;4.72;2.00;;;;;;;;;;5059385;28;20476;-84
2022/11/19 07:50:21;;;;;;;5.18;2.17;;;;;;;;;;5062280;28;20120;-85
2022/11/19 07:52:47;;;;;;;5.47;2.00;;;;;;;;;;5060875;28;20068;-85
2022/11/19 07:55:46;;;;;;;4.95;2.30;;;;;;;;;;5060608;28;20052;-84
2022/11/19 07:58:12;;;;;;;6.13;2.45;;;;;;;;;;4965326;28;20521;-83
2022/11/19 08:00:53;;;;;;;4.47;2.17;;;;;;;;;;5045200;28;20045;-84
2022/11/19 08:03:19;;;;;;;7.00;2.42;;;;;;;;;;5042360;28;20049;-84
2022/11/19 08:05:45;;;;;;;5.07;2.85;;;;;;;;;;5061278;28;20133;-83
2022/11/19 08:08:11;;;;;;;5.10;2.28;;;;;;;;;;5042973;28;20111;-83
2022/11/19 08:10:44;;;;;;;4.45;2.03;;;;;;;;;;5061620;28;20045;-84
2022/11/19 08:13:20;;;;;;;9.35;2.88;;;;;;;;;;5062168;28;20037;-84
2022/11/19 08:15:46;;;;;;;4.88;2.33;;;;;;;;;;5060071;28;20048;-84
2022/11/19 08:18:12;;;;;;;6.70;2.58;;;;;;;;;;5062428;28;20122;-85
2022/11/19 08:20:39;;;;;;;8.77;2.38;;;;;;;;;;5063372;28;20412;-84
2022/11/19 08:23:05;;;;;;;3.03;2.08;;;;;;;;;;5062791;28;20056;-83
2022/11/19 08:25:33;;;;;;;6.60;2.72;;;;;;;;;;5065249;28;20210;-83
2022/11/19 08:27:59;;;;;;;13.15;2.65;;;;;;;;;;5076941;28;20064;-82
2022/11/19 08:30:25;;;;;;;5.38;2.53;;;;;;;;;;5076881;28;20029;-83
2022/11/19 08:32:51;;;;;;;5.28;2.42;;;;;;;;;;5080040;28;20037;-83
2022/11/19 08:35:17;;;;;;;7.43;3.05;;;;;;;;;;5064347;28;20047;-83
2022/11/19 08:37:43;;;;;;;6.50;2.33;;;;;;;;;;5077996;28;20878;-82
2022/11/19 08:40:12;;;;;;;4.68;2.22;;;;;;;;;;5058206;28;20045;-84
2022/11/19 08:45:23;;;;;;;7.43;2.30;;;;;;;;;;5072148;28;20063;-82
2022/11/19 08:47:49;;;;;;;11.95;3.95;;;;;;;;;;5060154;28;20057;-82
2022/11/19 08:50:15;;;;;;;10.05;2.30;;;;;;;;;;5052507;28;20133;-82
2022/11/19 08:52:41;;;;;;;6.53;2.35;;;;;;;;;;5068022;28;20048;-83
2022/11/19 08:55:08;;;;;;;9.40;3.20;;;;;;;;;;5045709;28;20056;-83
2022/11/19 08:57:34;;;;;;;9.45;2.85;;;;;;;;;;5064939;28;20091;-83
2022/11/19 09:00:00;;;;;;;5.55;2.80;;;;;;;;;;5068463;28;20053;-84
2022/11/19 09:02:26;;;;;;;10.23;4.88;;;;;;;;;;5043739;28;20049;-84
2022/11/19 09:04:52;;;;;;;4.68;2.88;;;;;;;;;;5057942;28;20053;-84
2022/11/19 09:07:18;;;;;;;7.13;3.78;;;;;;;;;;5056054;28;20099;-83
2022/11/19 09:09:44;;;;;;;9.52;4.43;;;;;;;;;;5035025;28;20052;-83
2022/11/19 09:12:10;;;;;;;8.45;4.00;;;;;;;;;;5056070;28;20087;-81
2022/11/19 09:14:36;;;;;;;11.23;3.00;;;;;;;;;;5037492;28;20557;-83
2022/11/19 09:17:02;;;;;;;12.25;3.38;;;;;;;;;;5052705;28;20124;-81
2022/11/19 09:19:29;;;;;;;8.30;3.20;;;;;;;;;;5057228;28;20089;-82
2022/11/19 09:21:55;;;;;;;7.15;3.17;;;;;;;;;;5037670;28;20048;-82
2022/11/19 09:24:21;;;;;;;10.77;4.28;;;;;;;;;;5056219;28;20038;-82
2022/11/19 09:26:47;;;;;;;21.92;4.85;;;;;;;;;;5049742;28;20128;-82
2022/11/19 09:29:13;;;;;;;12.00;2.83;;;;;;;;;;5058855;28;20041;-82
2022/11/19 09:31:39;;;;;;;11.05;3.38;;;;;;;;;;5061408;28;20202;-83
2022/11/19 09:34:05;;;;;;;6.82;3.58;;;;;;;;;;5059833;28;20219;-81
2022/11/19 09:36:31;;;;;;;4.85;3.20;;;;;;;;;;5041761;28;20095;-82
2022/11/19 09:38:58;;;;;;;5.35;2.17;;;;;;;;;;5053393;28;20072;-81
2022/11/19 09:41:40;;;;;;;7.00;3.58;;;;;;;;;;5058184;28;20096;-81
2022/11/19 09:44:18;;;;;;;5.53;3.05;;;;;;;;;;5040794;28;20040;-82
2022/11/19 09:46:45;;;;;;;7.30;3.00;;;;;;;;;;5056808;28;20131;-80
2022/11/19 09:49:13;;;;;;;6.40;2.83;;;;;;;;;;5064166;28;20095;-82
2022/11/19 09:51:41;;;;;;;10.70;3.00;;;;;;;;;;5064461;28;20045;-82
2022/11/19 09:54:11;;;;;;;7.07;2.53;;;;;;;;;;5063474;28;20037;-83
2022/11/19 09:56:42;;;;;;;5.97;2.35;;;;;;;;;;5062289;28;20041;-82
2022/11/19 09:59:16;;;;;;;9.55;3.53;;;;;;;;;;5062204;28;20041;-82
2022/11/19 10:01:42;;;;;;;9.77;2.75;;;;;;;;;;5040682;28;20111;-81
2022/11/19 10:04:09;;;;;;;5.57;2.28;;;;;;;;;;5057039;28;20087;-81
2022/11/19 10:06:48;;;;;;;7.60;1.77;;;;;;;;;;5041552;28;20529;-80
2022/11/19 10:09:19;;;;;;;8.43;2.38;;;;;;;;;;5058752;28;20147;-79
2022/11/19 10:12:03;;;;;;;5.25;2.20;;;;;;;;;;5035179;28;20094;-81
2022/11/19 10:14:30;;;;;;;13.75;2.58;;;;;;;;;;5059361;28;20049;-79
2022/11/19 10:17:02;;;;;;;8.50;2.75;;;;;;;;;;5058482;28;20550;-80
2022/11/19 10:19:32;;;;;;;5.18;2.72;;;;;;;;;;5058952;28;20041;-79
2022/11/19 10:22:17;;;;;;;10.80;2.08;;;;;;;;;;5057973;28;20072;-78
2022/11/19 10:24:44;;;;;;;4.63;1.55;;;;;;;;;;5057190;28;21314;-78
2022/11/19 10:27:18;;;;;;;10.20;2.72;;;;;;;;;;5034273;28;20041;-80
2022/11/19 10:29:45;;;;;;;7.45;1.85;;;;;;;;;;5056640;28;20641;-81
2022/11/19 10:32:21;;;;;;;4.38;1.35;;;;;;;;;;5039492;28;20114;-81
2022/11/19 10:34:49;;;;;;;5.85;2.17;;;;;;;;;;5057835;28;20047;-79
2022/11/19 10:37:17;;;;;;;3.80;1.60;;;;;;;;;;5032583;28;20041;-79
2022/11/19 10:39:47;;;;;;;8.13;1.98;;;;;;;;;;5037186;28;20053;-79
2022/11/19 10:42:16;;;;;;;6.00;1.65;;;;;;;;;;5031498;28;20029;-77
2022/11/19 10:44:45;;;;;;;4.30;1.27;;;;;;;;;;5035104;28;20151;-80
2022/11/19 10:47:29;;;;;;;9.10;1.73;;;;;;;;;;5058724;28;20037;-77
2022/11/19 10:49:56;;;;;;;2.65;1.58;;;;;;;;;;5057776;28;20128;-78
2022/11/19 10:52:30;;;;;;;7.20;1.85;;;;;;;;;;5058100;28;20036;-79
2022/11/19 10:55:00;;;;;;;2.15;1.10;;;;;;;;;;5031015;28;20135;-79
2022/11/19 10:57:28;;;;;;;4.57;1.08;;;;;;;;;;5033946;28;20110;-79
2022/11/19 10:59:55;;;;;;;4.90;1.70;;;;;;;;;;5059392;28;20856;-78
2022/11/19 11:02:24;;;;;;;3.80;1.38;;;;;;;;;;5057848;28;20041;-80
2022/11/19 11:05:19;;;;;;;4.45;1.60;;;;;;;;;;5057625;28;20110;-81
2022/11/19 11:07:56;;;;;;;3.97;1.85;;;;;;;;;;5040003;28;20049;-80
2022/11/19 11:10:30;;;;;;;3.08;1.88;;;;;;;;;;5033458;28;20049;-78
2022/11/19 11:15:47;;;;;;;4.30;1.52;;;;;;;;;;5059572;28;20134;-78
2022/11/19 11:18:14;;;;;;;2.08;0.90;;;;;;;;;;5058712;28;20068;-79
2022/11/19 11:20:53;;;;;;;4.15;1.35;;;;;;;;;;5036219;28;20041;-80
2022/11/19 11:23:27;;;;;;;2.97;1.48;;;;;;;;;;5040985;28;20155;-79
2022/11/19 11:26:03;;;;;;;3.75;1.02;;;;;;;;;;5058437;28;20040;-78
2022/11/19 11:28:29;;;;;;;2.42;0.90;;;;;;;;;;5057396;28;20110;-78
2022/11/19 11:30:57;;;;;;;2.40;1.05;;;;;;;;;;5059121;28;20048;-78
2022/11/19 11:33:32;;;;;;;6.15;0.90;;;;;;;;;;5058803;28;20427;-77
2022/11/19 11:36:04;;;;;;;2.78;0.82;;;;;;;;;;5057166;28;20033;-78
2022/11/19 11:38:30;;;;;;;2.15;1.30;;;;;;;;;;5059845;28;20053;-78
2022/11/19 11:41:01;;;;;;;1.75;0.90;;;;;;;;;;5058254;28;20749;-78
2022/11/19 11:43:29;;;;;;;1.77;1.45;;;;;;;;;;5058954;28;20202;-79
2022/11/19 11:45:56;;;;;;;3.83;0.80;;;;;;;;;;5040377;28;20044;-77
2022/11/19 11:48:22;;;;;;;4.78;1.17;;;;;;;;;;5039395;28;20070;-78
2022/11/19 11:50:48;;;;;;;1.27;0.60;;;;;;;;;;5057320;28;20045;-78
2022/11/19 11:53:16;;;;;;;2.38;0.88;;;;;;;;;;5058196;28;20091;-78
2022/11/19 11:55:42;;;;;;;2.05;0.90;;;;;;;;;;5058032;28;20037;-78
2022/11/19 11:58:27;;;;;;;2.78;0.98;;;;;;;;;;5058302;28;20033;-77
2022/11/19 12:00:54;;;;;;;0.60;0.60;;;;;;;;;;5039827;28;20612;-76
2022/11/19 12:03:21;;;;;;;4.68;1.20;;;;;;;;;;5057636;28;20519;-78
2022/11/19 12:06:08;;;;;;;3.55;0.90;;;;;;;;;;5058474;28;20064;-78
2022/11/19 12:08:37;;;;;;;1.45;0.60;;;;;;;;;;5056390;28;20041;-78
2022/11/19 12:11:08;;;;;;;2.03;1.13;;;;;;;;;;5058167;28;20041;-78
2022/11/19 12:13:37;;;;;;;2.63;1.23;;;;;;;;;;5057164;28;20045;-80
2022/11/19 12:16:08;;;;;;;1.75;1.08;;;;;;;;;;5058464;28;20037;-77
2022/11/19 12:18:42;;;;;;;3.90;2.17;;;;;;;;;;5057766;28;20581;-78
2022/11/19 12:21:15;;;;;;;3.10;1.38;;;;;;;;;;5057450;28;20049;-77
2022/11/19 12:24:00;;;;;;;2.88;1.13;;;;;;;;;;5057988;28;20064;-77
2022/11/19 12:26:46;;;;;;;2.92;1.17;;;;;;;;;;5033702;28;20605;-79
2022/11/19 12:29:15;;;;;;;0.80;0.47;;;;;;;;;;5058168;28;20041;-79
2022/11/19 12:31:51;;;;;;;1.10;0.55;;;;;;;;;;5058109;28;20041;-77
2022/11/19 12:34:23;;;;;;;3.35;0.90;;;;;;;;;;5057088;28;20051;-78
2022/11/19 12:36:55;;;;;;;6.05;0.90;;;;;;;;;;5055819;28;20041;-80
2022/11/19 12:39:40;;;;;;;3.22;0.95;;;;;;;;;;5054536;28;20178;-78
2022/11/19 12:42:25;;;;;;;4.15;1.40;;;;;;;;;;5035568;28;20047;-79
2022/11/19 12:44:57;;;;;;;2.17;0.95;;;;;;;;;;5054671;28;20072;-78
2022/11/19 12:47:23;;;;;;;5.43;1.27;;;;;;;;;;5055491;28;20044;-78
2022/11/19 12:50:08;;;;;;;3.25;1.33;;;;;;;;;;5031684;28;20061;-78
2022/11/19 12:52:37;;;;;;;1.65;0.88;;;;;;;;;;5036190;28;20765;-79
2022/11/19 12:55:03;;;;;;;5.82;0.93;;;;;;;;;;5052981;28;20041;-78
2022/11/19 12:57:29;;;;;;;1.88;0.95;;;;;;;;;;5029675;28;20075;-79
2022/11/19 13:00:10;;;;;;;6.28;2.17;;;;;;;;;;5055013;28;20037;-77
2022/11/19 13:02:59;;;;;;;2.70;1.10;;;;;;;;;;5053748;28;20045;-78
2022/11/19 13:05:32;;;;;;;6.38;1.10;;;;;;;;;;5056670;28;20158;-79
2022/11/19 13:07:57;;;;;;;;;;;;;;;;;;5055395;28;20049;-79
2022/11/19 13:10:30;;;;;;;4.70;1.20;;;;;;;;;;5036386;28;19921;-77
2022/11/19 13:12:58;;;;;;;0.80;0.70;;;;;;;;;;5056203;28;20049;-78
2022/11/19 13:15:27;;;;;;;3.03;2.17;;;;;;;;;;5035370;28;20094;-77
2022/11/19 13:17:55;;;;;;;4.60;1.65;;;;;;;;;;5035722;28;20849;-77
2022/11/19 13:20:40;;;;;;;3.60;1.10;;;;;;;;;;5053481;28;20052;-78
2022/11/19 13:23:06;;;;;;;4.05;1.58;;;;;;;;;;5053376;28;20128;-77
2022/11/19 13:25:32;;;;;;;2.72;1.35;;;;;;;;;;5055172;28;20167;-78
2022/11/19 13:28:01;;;;;;;7.53;1.88;;;;;;;;;;5028956;28;20033;-77
2022/11/19 13:30:28;;;;;;;32.17;2.72;;;;;;;;;;5052491;28;20036;-78
2022/11/19 13:33:00;;;;;;;1.38;0.90;;;;;;;;;;5054752;28;20137;-78
2022/11/19 13:35:31;;;;;;;3.67;1.30;;;;;;;;;;5051037;28;20470;-76
2022/11/19 13:38:16;;;;;;;4.78;2.08;;;;;;;;;;5028113;28;20056;-77
2022/11/19 13:40:48;;;;;;;4.60;1.48;;;;;;;;;;5032096;28;20096;-77
2022/11/19 13:46:10;;;;;;;5.15;1.80;;;;;;;;;;5051988;28;20057;-78
2022/11/19 13:48:42;;;;;;;4.57;1.92;;;;;;;;;;5052672;28;20047;-78
2022/11/19 13:51:21;;;;;;;3.20;0.90;;;;;;;;;;5035666;28;20041;-80
2022/11/19 13:53:48;;;;;;;3.97;1.45;;;;;;;;;;5055043;28;20041;-77
2022/11/19 13:56:16;;;;;;;7.47;1.25;;;;;;;;;;5034983;28;20589;-78
2022/11/19 13:58:49;;;;;;;3.65;0.85;;;;;;;;;;5034819;28;20048;-79
2022/11/19 14:01:35;;;;;;;1.40;1.10;;;;;;;;;;5036611;28;20075;-79
2022/11/19 14:04:17;;;;;;;1.30;0.68;;;;;;;;;;5054727;28;20049;-78
2022/11/19 14:06:54;;;;;;;2.28;0.60;;;;;;;;;;5054123;28;20068;-79
2022/11/19 14:09:23;;;;;;;0.98;0.88;;;;;;;;;;5034766;28;20052;-79
2022/11/19 14:12:12;;;;;;;1.35;0.80;;;;;;;;;;5053560;28;20490;-78
2022/11/19 14:26:36;;;;;;;1.80;1.15;;;;;;;;;;5057829;28;20074;-77
2022/11/19 14:29:02;;;;;;;3.47;1.02;;;;;;;;;;5055141;28;20041;-77
2022/11/19 14:31:28;;;;;;;2.85;1.50;;;;;;;;;;5057046;28;20044;-80
2022/11/19 14:33:56;;;;;;;7.85;2.05;;;;;;;;;;5058938;28;20053;-79
2022/11/19 14:36:25;;;;;;;4.97;1.98;;;;;;;;;;5058008;28;20044;-78
2022/11/19 14:38:58;;;;;;;3.75;1.30;;;;;;;;;;5053223;28;21202;-79
2022/11/19 14:41:34;;;;;;;4.13;1.33;;;;;;;;;;5056782;28;20049;-79
2022/11/19 14:44:07;;;;;;;4.05;1.63;;;;;;;;;;5039426;28;20065;-79
2022/11/19 14:46:34;;;;;;;6.90;2.65;;;;;;;;;;5039513;28;20494;-80
2022/11/19 14:49:02;;;;;;;3.63;1.67;;;;;;;;;;5056601;28;20041;-79
2022/11/19 14:51:34;;;;;;;3.72;2.10;;;;;;;;;;5057701;28;20037;-79
2022/11/19 14:54:02;;;;;;;5.05;2.55;;;;;;;;;;5057982;28;20050;-79
2022/11/19 14:56:29;;;;;;;4.70;1.17;;;;;;;;;;5036434;28;20072;-79
2022/11/19 14:59:01;;;;;;;6.65;1.95;;;;;;;;;;5056347;28;20045;-78
2022/11/19 15:01:27;;;;;;;1.25;1.15;;;;;;;;;;5057366;28;20098;-79
2022/11/19 15:03:58;;;;;;;4.03;1.90;;;;;;;;;;5056064;28;20045;-78
2022/11/19 15:06:25;;;;;;;3.53;1.30;;;;;;;;;;5054706;28;20092;-79
2022/11/19 15:08:52;;;;;;;4.18;1.80;;;;;;;;;;5057588;28;20531;-79
2022/11/19 15:11:18;;;;;;;1.65;1.23;;;;;;;;;;5055025;28;20539;-80
2022/11/19 15:13:48;;;;;;;3.90;1.17;;;;;;;;;;5037770;28;20180;-80
2022/11/19 15:16:22;;;;;;;3.13;1.63;;;;;;;;;;5056152;28;20522;-80
2022/11/19 15:19:07;;;;;;;1.70;1.02;;;;;;;;;;5054061;28;20660;-79
2022/11/19 15:21:48;;;;;;;2.50;1.00;;;;;;;;;;5057069;28;20041;-78
2022/11/19 15:24:17;;;;;;;3.22;1.40;;;;;;;;;;5057590;28;20084;-78
2022/11/19 15:26:49;;;;;;;5.13;1.33;;;;;;;;;;5055534;28;20056;-78
2022/11/19 15:29:34;;;;;;;7.50;1.80;;;;;;;;;;5055557;28;20045;-78
2022/11/19 15:32:19;;;;;;;3.22;1.38;;;;;;;;;;5056492;28;20126;-78